sensor_id;sensor_type;location;lat;lon;timestamp;P1;durP1;ratioP1;P2;durP2;ratioP2
33206;SDS011;19565;46.602;11.534;2023-07-02T00:00:31;0.40;;;0.40;;
33206;SDS011;19565;46.602;11.534;2023-07-02T00:03:00;0.80;;;0.73;;
33206;SDS011;19565;46.602;11.534;2023-07-02T00:05:29;0.60;;;0.60;;
33206;SDS011;19565;46.602;11.534;2023-07-02T00:07:58;0.47;;;0.47;;
33206;SDS011;19565;46.602;11.534;2023-07-02T00:10:26;0.57;;;0.57;;
33206;SDS011;19565;46.602;11.534;2023-07-02T00:12:54;1.08;;;0.98;;
33206;SDS011;19565;46.602;11.534;2023-07-02T00:15:22;0.82;;;0.82;;
33206;SDS011;19565;46.602;11.534;2023-07-02T00:17:50;0.40;;;0.40;;
33206;SDS011;19565;46.602;11.534;2023-07-02T00:20:19;0.52;;;0.40;;
33206;SDS011;19565;46.602;11.534;2023-07-02T00:22:48;1.10;;;0.85;;
33206;SDS011;19565;46.602;11.534;2023-07-02T00:25:16;2.10;;;0.82;;
33206;SDS011;19565;46.602;11.534;2023-07-02T00:27:44;6.00;;;1.48;;
33206;SDS011;19565;46.602;11.534;2023-07-02T00:30:12;0.60;;;0.60;;
33206;SDS011;19565;46.602;11.534;2023-07-02T00:32:41;0.52;;;0.52;;
33206;SDS011;19565;46.602;11.534;2023-07-02T00:35:09;0.20;;;0.20;;
33206;SDS011;19565;46.602;11.534;2023-07-02T00:37:38;0.43;;;0.43;;
33206;SDS011;19565;46.602;11.534;2023-07-02T00:40:07;0.90;;;0.60;;
33206;SDS011;19565;46.602;11.534;2023-07-02T00:42:36;0.98;;;0.85;;
33206;SDS011;19565;46.602;11.534;2023-07-02T00:45:04;0.73;;;0.73;;
33206;SDS011;19565;46.602;11.534;2023-07-02T00:47:33;1.27;;;1.02;;
33206;SDS011;19565;46.602;11.534;2023-07-02T00:50:02;0.50;;;0.50;;
33206;SDS011;19565;46.602;11.534;2023-07-02T00:52:32;0.98;;;0.55;;
33206;SDS011;19565;46.602;11.534;2023-07-02T00:55:01;2.05;;;1.23;;
33206;SDS011;19565;46.602;11.534;2023-07-02T00:57:29;0.85;;;0.50;;
33206;SDS011;19565;46.602;11.534;2023-07-02T00:59:58;1.02;;;0.88;;
33206;SDS011;19565;46.602;11.534;2023-07-02T01:02:27;1.65;;;1.38;;
33206;SDS011;19565;46.602;11.534;2023-07-02T01:04:56;1.17;;;1.08;;
33206;SDS011;19565;46.602;11.534;2023-07-02T01:07:27;0.60;;;0.60;;
33206;SDS011;19565;46.602;11.534;2023-07-02T01:09:56;0.30;;;0.30;;
33206;SDS011;19565;46.602;11.534;2023-07-02T01:12:25;0.90;;;0.82;;
33206;SDS011;19565;46.602;11.534;2023-07-02T01:14:55;0.28;;;0.28;;
33206;SDS011;19565;46.602;11.534;2023-07-02T01:17:27;0.52;;;0.52;;
33206;SDS011;19565;46.602;11.534;2023-07-02T01:20:06;2.05;;;1.05;;
33206;SDS011;19565;46.602;11.534;2023-07-02T01:22:36;0.40;;;0.40;;
33206;SDS011;19565;46.602;11.534;2023-07-02T01:25:05;0.40;;;0.40;;
33206;SDS011;19565;46.602;11.534;2023-07-02T01:27:35;0.47;;;0.47;;
33206;SDS011;19565;46.602;11.534;2023-07-02T01:30:05;0.25;;;0.25;;
33206;SDS011;19565;46.602;11.534;2023-07-02T01:32:34;0.75;;;0.75;;
33206;SDS011;19565;46.602;11.534;2023-07-02T01:35:02;0.52;;;0.52;;
33206;SDS011;19565;46.602;11.534;2023-07-02T01:37:32;0.77;;;0.52;;
33206;SDS011;19565;46.602;11.534;2023-07-02T01:40:04;5.70;;;2.20;;
33206;SDS011;19565;46.602;11.534;2023-07-02T01:42:34;0.55;;;0.55;;
33206;SDS011;19565;46.602;11.534;2023-07-02T01:45:02;0.90;;;0.77;;
33206;SDS011;19565;46.602;11.534;2023-07-02T01:47:30;0.82;;;0.73;;
33206;SDS011;19565;46.602;11.534;2023-07-02T01:49:59;1.15;;;0.60;;
33206;SDS011;19565;46.602;11.534;2023-07-02T01:52:27;0.50;;;0.50;;
33206;SDS011;19565;46.602;11.534;2023-07-02T01:55:07;1.70;;;1.35;;
33206;SDS011;19565;46.602;11.534;2023-07-02T01:57:35;0.93;;;0.80;;
33206;SDS011;19565;46.602;11.534;2023-07-02T02:00:04;2.42;;;1.63;;
33206;SDS011;19565;46.602;11.534;2023-07-02T02:02:35;1.25;;;0.90;;
33206;SDS011;19565;46.602;11.534;2023-07-02T02:05:03;1.83;;;1.17;;
33206;SDS011;19565;46.602;11.534;2023-07-02T02:07:32;1.40;;;1.17;;
33206;SDS011;19565;46.602;11.534;2023-07-02T02:10:02;3.63;;;0.93;;
33206;SDS011;19565;46.602;11.534;2023-07-02T02:12:31;0.57;;;0.50;;
33206;SDS011;19565;46.602;11.534;2023-07-02T02:14:59;0.50;;;0.50;;
33206;SDS011;19565;46.602;11.534;2023-07-02T02:17:28;10.40;;;1.52;;
33206;SDS011;19565;46.602;11.534;2023-07-02T02:19:56;6.00;;;2.03;;
33206;SDS011;19565;46.602;11.534;2023-07-02T02:22:24;0.38;;;0.38;;
33206;SDS011;19565;46.602;11.534;2023-07-02T02:24:52;0.45;;;0.45;;
33206;SDS011;19565;46.602;11.534;2023-07-02T02:27:20;1.02;;;0.95;;
33206;SDS011;19565;46.602;11.534;2023-07-02T02:29:49;1.45;;;0.85;;
33206;SDS011;19565;46.602;11.534;2023-07-02T02:32:17;1.05;;;1.05;;
33206;SDS011;19565;46.602;11.534;2023-07-02T02:34:47;1.00;;;0.90;;
33206;SDS011;19565;46.602;11.534;2023-07-02T02:37:15;0.82;;;0.82;;
33206;SDS011;19565;46.602;11.534;2023-07-02T02:39:43;1.52;;;1.17;;
33206;SDS011;19565;46.602;11.534;2023-07-02T02:42:11;1.13;;;0.75;;
33206;SDS011;19565;46.602;11.534;2023-07-02T02:44:39;1.55;;;1.13;;
33206;SDS011;19565;46.602;11.534;2023-07-02T02:47:09;1.17;;;1.00;;
33206;SDS011;19565;46.602;11.534;2023-07-02T02:49:37;1.70;;;1.10;;
33206;SDS011;19565;46.602;11.534;2023-07-02T02:52:06;1.50;;;1.27;;
33206;SDS011;19565;46.602;11.534;2023-07-02T02:54:34;0.80;;;0.80;;
33206;SDS011;19565;46.602;11.534;2023-07-02T02:57:02;1.27;;;0.73;;
33206;SDS011;19565;46.602;11.534;2023-07-02T02:59:30;0.98;;;0.88;;
33206;SDS011;19565;46.602;11.534;2023-07-02T03:01:58;2.22;;;0.93;;
33206;SDS011;19565;46.602;11.534;2023-07-02T03:04:28;0.82;;;0.52;;
33206;SDS011;19565;46.602;11.534;2023-07-02T03:06:56;0.80;;;0.80;;
33206;SDS011;19565;46.602;11.534;2023-07-02T03:09:24;1.65;;;0.60;;
33206;SDS011;19565;46.602;11.534;2023-07-02T03:11:52;0.65;;;0.60;;
33206;SDS011;19565;46.602;11.534;2023-07-02T03:14:20;1.25;;;1.10;;
33206;SDS011;19565;46.602;11.534;2023-07-02T03:16:48;0.77;;;0.52;;
33206;SDS011;19565;46.602;11.534;2023-07-02T03:19:16;1.40;;;0.88;;
33206;SDS011;19565;46.602;11.534;2023-07-02T03:21:46;1.55;;;0.88;;
33206;SDS011;19565;46.602;11.534;2023-07-02T03:24:14;0.95;;;0.43;;
33206;SDS011;19565;46.602;11.534;2023-07-02T03:26:42;1.73;;;1.33;;
33206;SDS011;19565;46.602;11.534;2023-07-02T03:29:11;0.88;;;0.88;;
33206;SDS011;19565;46.602;11.534;2023-07-02T03:31:39;1.48;;;1.00;;
33206;SDS011;19565;46.602;11.534;2023-07-02T03:34:08;0.73;;;0.73;;
33206;SDS011;19565;46.602;11.534;2023-07-02T03:36:37;0.95;;;0.82;;
33206;SDS011;19565;46.602;11.534;2023-07-02T03:39:06;1.77;;;1.48;;
33206;SDS011;19565;46.602;11.534;2023-07-02T03:41:36;1.65;;;0.75;;
33206;SDS011;19565;46.602;11.534;2023-07-02T03:44:04;1.30;;;1.17;;
33206;SDS011;19565;46.602;11.534;2023-07-02T03:46:32;1.10;;;1.10;;
33206;SDS011;19565;46.602;11.534;2023-07-02T03:49:00;0.75;;;0.52;;
33206;SDS011;19565;46.602;11.534;2023-07-02T03:51:29;1.52;;;1.25;;
33206;SDS011;19565;46.602;11.534;2023-07-02T03:53:57;1.35;;;0.80;;
33206;SDS011;19565;46.602;11.534;2023-07-02T03:56:27;0.32;;;0.32;;
33206;SDS011;19565;46.602;11.534;2023-07-02T03:58:55;1.98;;;0.88;;
33206;SDS011;19565;46.602;11.534;2023-07-02T04:01:23;2.13;;;1.50;;
33206;SDS011;19565;46.602;11.534;2023-07-02T04:03:52;1.70;;;1.00;;
33206;SDS011;19565;46.602;11.534;2023-07-02T04:06:20;0.40;;;0.40;;
33206;SDS011;19565;46.602;11.534;2023-07-02T04:08:49;2.17;;;1.40;;
33206;SDS011;19565;46.602;11.534;2023-07-02T04:11:17;1.33;;;0.90;;
33206;SDS011;19565;46.602;11.534;2023-07-02T04:13:46;0.77;;;0.77;;
33206;SDS011;19565;46.602;11.534;2023-07-02T04:16:15;1.73;;;0.60;;
33206;SDS011;19565;46.602;11.534;2023-07-02T04:18:43;0.77;;;0.77;;
33206;SDS011;19565;46.602;11.534;2023-07-02T04:21:11;2.83;;;1.45;;
33206;SDS011;19565;46.602;11.534;2023-07-02T04:23:39;1.02;;;0.95;;
33206;SDS011;19565;46.602;11.534;2023-07-02T04:26:07;0.60;;;0.60;;
33206;SDS011;19565;46.602;11.534;2023-07-02T04:28:57;0.35;;;0.35;;
33206;SDS011;19565;46.602;11.534;2023-07-02T04:31:26;1.10;;;1.05;;
33206;SDS011;19565;46.602;11.534;2023-07-02T04:33:54;0.77;;;0.55;;
33206;SDS011;19565;46.602;11.534;2023-07-02T04:36:22;2.22;;;1.60;;
33206;SDS011;19565;46.602;11.534;2023-07-02T04:38:50;1.50;;;0.80;;
33206;SDS011;19565;46.602;11.534;2023-07-02T04:41:18;1.23;;;0.73;;
33206;SDS011;19565;46.602;11.534;2023-07-02T04:43:47;5.95;;;1.50;;
33206;SDS011;19565;46.602;11.534;2023-07-02T04:46:16;1.08;;;0.95;;
33206;SDS011;19565;46.602;11.534;2023-07-02T04:48:44;1.38;;;1.27;;
33206;SDS011;19565;46.602;11.534;2023-07-02T04:51:13;0.50;;;0.50;;
33206;SDS011;19565;46.602;11.534;2023-07-02T04:53:41;0.65;;;0.65;;
33206;SDS011;19565;46.602;11.534;2023-07-02T04:56:09;5.40;;;1.60;;
33206;SDS011;19565;46.602;11.534;2023-07-02T04:58:37;0.45;;;0.45;;
33206;SDS011;19565;46.602;11.534;2023-07-02T05:01:05;2.67;;;1.27;;
33206;SDS011;19565;46.602;11.534;2023-07-02T05:03:36;0.60;;;0.60;;
33206;SDS011;19565;46.602;11.534;2023-07-02T05:06:04;1.23;;;1.08;;
33206;SDS011;19565;46.602;11.534;2023-07-02T05:08:32;2.50;;;1.58;;
33206;SDS011;19565;46.602;11.534;2023-07-02T05:11:02;0.98;;;0.70;;
33206;SDS011;19565;46.602;11.534;2023-07-02T05:13:30;0.63;;;0.63;;
33206;SDS011;19565;46.602;11.534;2023-07-02T05:15:58;3.80;;;1.85;;
33206;SDS011;19565;46.602;11.534;2023-07-02T05:18:27;2.20;;;1.85;;
33206;SDS011;19565;46.602;11.534;2023-07-02T05:20:56;1.73;;;1.10;;
33206;SDS011;19565;46.602;11.534;2023-07-02T05:23:24;1.45;;;0.82;;
33206;SDS011;19565;46.602;11.534;2023-07-02T05:25:52;1.27;;;0.68;;
33206;SDS011;19565;46.602;11.534;2023-07-02T05:28:20;1.80;;;1.70;;
33206;SDS011;19565;46.602;11.534;2023-07-02T05:30:48;1.45;;;1.00;;
33206;SDS011;19565;46.602;11.534;2023-07-02T05:33:17;2.15;;;1.10;;
33206;SDS011;19565;46.602;11.534;2023-07-02T05:35:45;1.20;;;1.02;;
33206;SDS011;19565;46.602;11.534;2023-07-02T05:38:17;2.38;;;1.88;;
33206;SDS011;19565;46.602;11.534;2023-07-02T05:40:46;0.85;;;0.85;;
33206;SDS011;19565;46.602;11.534;2023-07-02T05:43:14;1.27;;;1.17;;
33206;SDS011;19565;46.602;11.534;2023-07-02T05:45:42;2.33;;;1.45;;
33206;SDS011;19565;46.602;11.534;2023-07-02T05:48:10;1.40;;;1.30;;
33206;SDS011;19565;46.602;11.534;2023-07-02T05:50:38;0.65;;;0.65;;
33206;SDS011;19565;46.602;11.534;2023-07-02T05:53:06;1.95;;;1.52;;
33206;SDS011;19565;46.602;11.534;2023-07-02T05:55:37;1.42;;;1.13;;
33206;SDS011;19565;46.602;11.534;2023-07-02T05:58:05;3.25;;;2.92;;
33206;SDS011;19565;46.602;11.534;2023-07-02T06:00:33;1.85;;;1.65;;
33206;SDS011;19565;46.602;11.534;2023-07-02T06:03:01;2.13;;;1.92;;
33206;SDS011;19565;46.602;11.534;2023-07-02T06:05:30;4.13;;;3.10;;
33206;SDS011;19565;46.602;11.534;2023-07-02T06:07:58;2.70;;;2.50;;
33206;SDS011;19565;46.602;11.534;2023-07-02T06:10:26;3.88;;;3.15;;
33206;SDS011;19565;46.602;11.534;2023-07-02T06:12:56;2.92;;;2.72;;
33206;SDS011;19565;46.602;11.534;2023-07-02T06:15:24;3.85;;;3.47;;
33206;SDS011;19565;46.602;11.534;2023-07-02T06:17:52;3.25;;;2.95;;
33206;SDS011;19565;46.602;11.534;2023-07-02T06:20:20;4.05;;;3.75;;
33206;SDS011;19565;46.602;11.534;2023-07-02T06:22:48;4.10;;;3.80;;
33206;SDS011;19565;46.602;11.534;2023-07-02T06:25:16;3.60;;;3.40;;
33206;SDS011;19565;46.602;11.534;2023-07-02T06:27:44;5.28;;;4.70;;
33206;SDS011;19565;46.602;11.534;2023-07-02T06:30:14;17.67;;;5.72;;
33206;SDS011;19565;46.602;11.534;2023-07-02T06:32:42;4.15;;;3.88;;
33206;SDS011;19565;46.602;11.534;2023-07-02T06:35:10;4.75;;;4.45;;
33206;SDS011;19565;46.602;11.534;2023-07-02T06:37:38;5.88;;;5.47;;
33206;SDS011;19565;46.602;11.534;2023-07-02T06:40:06;5.00;;;4.70;;
33206;SDS011;19565;46.602;11.534;2023-07-02T06:42:35;5.22;;;4.82;;
33206;SDS011;19565;46.602;11.534;2023-07-02T06:45:04;6.07;;;5.68;;
33206;SDS011;19565;46.602;11.534;2023-07-02T06:47:34;5.47;;;5.07;;
33206;SDS011;19565;46.602;11.534;2023-07-02T06:50:02;6.05;;;5.65;;
33206;SDS011;19565;46.602;11.534;2023-07-02T06:52:30;7.38;;;6.72;;
33206;SDS011;19565;46.602;11.534;2023-07-02T06:54:58;13.38;;;7.15;;
33206;SDS011;19565;46.602;11.534;2023-07-02T06:57:26;8.32;;;7.82;;
33206;SDS011;19565;46.602;11.534;2023-07-02T06:59:57;10.45;;;9.57;;
33206;SDS011;19565;46.602;11.534;2023-07-02T07:02:26;10.55;;;9.95;;
33206;SDS011;19565;46.602;11.534;2023-07-02T07:04:56;13.48;;;12.77;;
33206;SDS011;19565;46.602;11.534;2023-07-02T07:07:24;13.55;;;12.75;;
33206;SDS011;19565;46.602;11.534;2023-07-02T07:09:52;12.15;;;11.45;;
33206;SDS011;19565;46.602;11.534;2023-07-02T07:12:20;11.77;;;11.07;;
33206;SDS011;19565;46.602;11.534;2023-07-02T07:14:48;14.10;;;13.30;;
33206;SDS011;19565;46.602;11.534;2023-07-02T07:17:16;16.33;;;15.52;;
33206;SDS011;19565;46.602;11.534;2023-07-02T07:19:45;17.30;;;16.35;;
33206;SDS011;19565;46.602;11.534;2023-07-02T07:22:14;17.65;;;16.73;;
33206;SDS011;19565;46.602;11.534;2023-07-02T07:24:42;18.88;;;17.88;;
33206;SDS011;19565;46.602;11.534;2023-07-02T07:27:10;18.73;;;17.73;;
33206;SDS011;19565;46.602;11.534;2023-07-02T07:29:38;20.35;;;19.35;;
33206;SDS011;19565;46.602;11.534;2023-07-02T07:32:06;20.75;;;19.75;;
33206;SDS011;19565;46.602;11.534;2023-07-02T07:34:35;30.40;;;29.00;;
33206;SDS011;19565;46.602;11.534;2023-07-02T07:37:03;35.97;;;34.38;;
33206;SDS011;19565;46.602;11.534;2023-07-02T07:39:33;52.92;;;50.72;;
33206;SDS011;19565;46.602;11.534;2023-07-02T07:42:03;64.25;;;61.45;;
33206;SDS011;19565;46.602;11.534;2023-07-02T07:44:31;71.53;;;68.53;;
33206;SDS011;19565;46.602;11.534;2023-07-02T07:46:59;70.03;;;67.00;;
33206;SDS011;19565;46.602;11.534;2023-07-02T07:49:27;73.63;;;70.53;;
33206;SDS011;19565;46.602;11.534;2023-07-02T07:51:55;64.82;;;62.10;;
33206;SDS011;19565;46.602;11.534;2023-07-02T07:54:23;65.32;;;62.28;;
33206;SDS011;19565;46.602;11.534;2023-07-02T07:56:53;68.72;;;65.80;;
33206;SDS011;19565;46.602;11.534;2023-07-02T07:59:21;71.25;;;68.22;;
33206;SDS011;19565;46.602;11.534;2023-07-02T08:01:49;68.18;;;65.28;;
33206;SDS011;19565;46.602;11.534;2023-07-02T08:04:17;69.82;;;66.82;;
33206;SDS011;19565;46.602;11.534;2023-07-02T08:06:45;58.90;;;56.38;;
33206;SDS011;19565;46.602;11.534;2023-07-02T08:09:13;60.10;;;57.50;;
33206;SDS011;19565;46.602;11.534;2023-07-02T08:11:41;57.83;;;55.42;;
33206;SDS011;19565;46.602;11.534;2023-07-02T08:14:11;56.20;;;53.80;;
33206;SDS011;19565;46.602;11.534;2023-07-02T08:16:39;53.70;;;51.40;;
33206;SDS011;19565;46.602;11.534;2023-07-02T08:19:07;67.65;;;64.82;;
33206;SDS011;19565;46.602;11.534;2023-07-02T08:21:35;53.55;;;51.15;;
33206;SDS011;19565;46.602;11.534;2023-07-02T08:24:03;49.97;;;47.83;;
33206;SDS011;19565;46.602;11.534;2023-07-02T08:26:32;49.88;;;47.67;;
33206;SDS011;19565;46.602;11.534;2023-07-02T08:29:00;55.00;;;52.60;;
33206;SDS011;19565;46.602;11.534;2023-07-02T08:31:30;55.40;;;53.05;;
33206;SDS011;19565;46.602;11.534;2023-07-02T08:33:58;67.95;;;65.05;;
33206;SDS011;19565;46.602;11.534;2023-07-02T08:36:26;64.38;;;61.65;;
33206;SDS011;19565;46.602;11.534;2023-07-02T08:38:54;68.95;;;66.03;;
33206;SDS011;19565;46.602;11.534;2023-07-02T08:41:22;69.72;;;66.65;;
33206;SDS011;19565;46.602;11.534;2023-07-02T08:43:50;66.40;;;63.60;;
33206;SDS011;19565;46.602;11.534;2023-07-02T08:46:22;68.40;;;65.50;;
33206;SDS011;19565;46.602;11.534;2023-07-02T08:48:52;68.90;;;66.00;;
33206;SDS011;19565;46.602;11.534;2023-07-02T08:51:20;67.60;;;64.70;;
33206;SDS011;19565;46.602;11.534;2023-07-02T08:53:48;67.95;;;65.05;;
33206;SDS011;19565;46.602;11.534;2023-07-02T08:56:16;69.70;;;66.70;;
33206;SDS011;19565;46.602;11.534;2023-07-02T08:58:44;71.60;;;68.57;;
33206;SDS011;19565;46.602;11.534;2023-07-02T09:01:13;72.22;;;69.13;;
33206;SDS011;19565;46.602;11.534;2023-07-02T09:03:41;67.35;;;64.55;;
33206;SDS011;19565;46.602;11.534;2023-07-02T09:06:11;78.53;;;75.18;;
33206;SDS011;19565;46.602;11.534;2023-07-02T09:08:39;79.28;;;75.85;;
33206;SDS011;19565;46.602;11.534;2023-07-02T09:11:08;76.55;;;73.35;;
33206;SDS011;19565;46.602;11.534;2023-07-02T09:13:43;69.22;;;66.22;;
33206;SDS011;19565;46.602;11.534;2023-07-02T09:16:22;64.00;;;61.30;;
33206;SDS011;19565;46.602;11.534;2023-07-02T09:18:58;65.63;;;62.83;;
33206;SDS011;19565;46.602;11.534;2023-07-02T09:21:41;65.50;;;62.72;;
33206;SDS011;19565;46.602;11.534;2023-07-02T09:24:12;63.33;;;60.65;;
33206;SDS011;19565;46.602;11.534;2023-07-02T09:26:43;64.75;;;62.05;;
33206;SDS011;19565;46.602;11.534;2023-07-02T09:29:12;63.13;;;60.42;;
33206;SDS011;19565;46.602;11.534;2023-07-02T09:31:44;58.85;;;56.35;;
33206;SDS011;19565;46.602;11.534;2023-07-02T09:34:33;59.50;;;57.00;;
33206;SDS011;19565;46.602;11.534;2023-07-02T09:37:03;57.22;;;54.83;;
33206;SDS011;19565;46.602;11.534;2023-07-02T09:39:33;60.53;;;57.92;;
33206;SDS011;19565;46.602;11.534;2023-07-02T09:42:04;59.47;;;56.95;;
33206;SDS011;19565;46.602;11.534;2023-07-02T09:44:34;61.53;;;58.83;;
33206;SDS011;19565;46.602;11.534;2023-07-02T09:47:03;58.97;;;56.40;;
33206;SDS011;19565;46.602;11.534;2023-07-02T09:49:32;59.85;;;57.30;;
33206;SDS011;19565;46.602;11.534;2023-07-02T09:52:03;63.35;;;60.65;;
33206;SDS011;19565;46.602;11.534;2023-07-02T09:54:32;65.45;;;62.65;;
33206;SDS011;19565;46.602;11.534;2023-07-02T09:57:01;66.85;;;64.05;;
33206;SDS011;19565;46.602;11.534;2023-07-02T09:59:29;67.80;;;65.00;;
33206;SDS011;19565;46.602;11.534;2023-07-02T10:01:58;70.93;;;67.95;;
33206;SDS011;19565;46.602;11.534;2023-07-02T10:04:26;69.45;;;66.47;;
33206;SDS011;19565;46.602;11.534;2023-07-02T10:06:55;74.93;;;71.82;;
33206;SDS011;19565;46.602;11.534;2023-07-02T10:09:35;72.18;;;69.18;;
33206;SDS011;19565;46.602;11.534;2023-07-02T10:14:49;63.90;;;61.20;;
33206;SDS011;19565;46.602;11.534;2023-07-02T10:17:25;72.20;;;69.10;;
33206;SDS011;19565;46.602;11.534;2023-07-02T10:19:58;65.97;;;63.15;;
33206;SDS011;19565;46.602;11.534;2023-07-02T10:22:27;70.22;;;67.32;;
33206;SDS011;19565;46.602;11.534;2023-07-02T10:24:57;66.57;;;63.70;;
33206;SDS011;19565;46.602;11.534;2023-07-02T10:27:33;60.40;;;57.83;;
33206;SDS011;19565;46.602;11.534;2023-07-02T10:30:03;65.15;;;62.35;;
33206;SDS011;19565;46.602;11.534;2023-07-02T10:32:32;63.72;;;61.03;;
33206;SDS011;19565;46.602;11.534;2023-07-02T10:35:01;63.80;;;61.10;;
33206;SDS011;19565;46.602;11.534;2023-07-02T10:37:40;67.35;;;64.45;;
33206;SDS011;19565;46.602;11.534;2023-07-02T10:40:10;65.40;;;62.45;;
33206;SDS011;19565;46.602;11.534;2023-07-02T10:42:45;63.83;;;61.15;;
33206;SDS011;19565;46.602;11.534;2023-07-02T10:45:14;73.13;;;70.03;;
33206;SDS011;19565;46.602;11.534;2023-07-02T10:47:42;56.50;;;54.05;;
33206;SDS011;19565;46.602;11.534;2023-07-02T10:50:17;57.53;;;55.13;;
33206;SDS011;19565;46.602;11.534;2023-07-02T10:52:46;71.13;;;68.13;;
33206;SDS011;19565;46.602;11.534;2023-07-02T10:55:18;72.15;;;69.05;;
33206;SDS011;19565;46.602;11.534;2023-07-02T10:57:46;52.85;;;50.65;;
33206;SDS011;19565;46.602;11.534;2023-07-02T11:00:18;54.60;;;52.20;;
33206;SDS011;19565;46.602;11.534;2023-07-02T11:02:46;75.43;;;72.22;;
33206;SDS011;19565;46.602;11.534;2023-07-02T11:05:15;71.60;;;68.53;;
33206;SDS011;19565;46.602;11.534;2023-07-02T11:07:43;58.40;;;55.90;;
33206;SDS011;19565;46.602;11.534;2023-07-02T11:10:16;61.38;;;58.72;;
33206;SDS011;19565;46.602;11.534;2023-07-02T11:12:46;59.55;;;57.05;;
33206;SDS011;19565;46.602;11.534;2023-07-02T11:15:15;55.78;;;53.47;;
33206;SDS011;19565;46.602;11.534;2023-07-02T11:17:44;55.65;;;53.35;;
33206;SDS011;19565;46.602;11.534;2023-07-02T11:20:14;53.90;;;51.60;;
33206;SDS011;19565;46.602;11.534;2023-07-02T11:22:42;53.03;;;50.75;;
33206;SDS011;19565;46.602;11.534;2023-07-02T11:25:11;72.55;;;69.45;;
33206;SDS011;19565;46.602;11.534;2023-07-02T11:27:41;72.97;;;69.93;;
33206;SDS011;19565;46.602;11.534;2023-07-02T11:30:10;74.95;;;71.85;;
33206;SDS011;19565;46.602;11.534;2023-07-02T11:32:49;74.25;;;71.05;;
33206;SDS011;19565;46.602;11.534;2023-07-02T11:35:18;77.53;;;74.22;;
33206;SDS011;19565;46.602;11.534;2023-07-02T11:37:47;76.78;;;73.57;;
33206;SDS011;19565;46.602;11.534;2023-07-02T11:40:17;57.63;;;55.13;;
33206;SDS011;19565;46.602;11.534;2023-07-02T11:42:46;62.33;;;59.67;;
33206;SDS011;19565;46.602;11.534;2023-07-02T11:45:14;63.58;;;60.88;;
33206;SDS011;19565;46.602;11.534;2023-07-02T11:47:42;64.43;;;61.72;;
33206;SDS011;19565;46.602;11.534;2023-07-02T11:50:10;68.45;;;65.50;;
33206;SDS011;19565;46.602;11.534;2023-07-02T11:52:52;79.78;;;76.47;;
33206;SDS011;19565;46.602;11.534;2023-07-02T11:55:20;64.20;;;61.50;;
33206;SDS011;19565;46.602;11.534;2023-07-02T11:57:50;71.78;;;68.78;;
33206;SDS011;19565;46.602;11.534;2023-07-02T12:00:18;63.22;;;60.58;;
33206;SDS011;19565;46.602;11.534;2023-07-02T12:02:46;60.28;;;57.70;;
33206;SDS011;19565;46.602;11.534;2023-07-02T12:05:15;58.88;;;56.35;;
33206;SDS011;19565;46.602;11.534;2023-07-02T12:07:43;58.03;;;55.63;;
33206;SDS011;19565;46.602;11.534;2023-07-02T12:10:11;57.25;;;54.85;;
33206;SDS011;19565;46.602;11.534;2023-07-02T12:12:40;55.47;;;53.00;;
33206;SDS011;19565;46.602;11.534;2023-07-02T12:15:10;53.65;;;51.38;;
33206;SDS011;19565;46.602;11.534;2023-07-02T12:17:38;52.20;;;50.00;;
33206;SDS011;19565;46.602;11.534;2023-07-02T12:20:06;50.72;;;48.53;;
33206;SDS011;19565;46.602;11.534;2023-07-02T12:22:35;54.03;;;51.65;;
33206;SDS011;19565;46.602;11.534;2023-07-02T12:25:03;54.60;;;52.30;;
33206;SDS011;19565;46.602;11.534;2023-07-02T12:27:32;56.88;;;54.47;;
33206;SDS011;19565;46.602;11.534;2023-07-02T12:30:00;57.63;;;55.22;;
33206;SDS011;19565;46.602;11.534;2023-07-02T12:32:30;59.00;;;56.45;;
33206;SDS011;19565;46.602;11.534;2023-07-02T12:34:58;59.72;;;57.22;;
33206;SDS011;19565;46.602;11.534;2023-07-02T12:37:26;63.17;;;60.47;;
33206;SDS011;19565;46.602;11.534;2023-07-02T12:39:54;68.93;;;66.05;;
33206;SDS011;19565;46.602;11.534;2023-07-02T12:42:22;63.22;;;60.33;;
33206;SDS011;19565;46.602;11.534;2023-07-02T12:44:50;60.60;;;58.08;;
33206;SDS011;19565;46.602;11.534;2023-07-02T12:47:18;61.40;;;58.80;;
33206;SDS011;19565;46.602;11.534;2023-07-02T12:49:48;65.25;;;62.53;;
33206;SDS011;19565;46.602;11.534;2023-07-02T12:52:16;67.63;;;64.72;;
33206;SDS011;19565;46.602;11.534;2023-07-02T12:54:44;61.80;;;59.20;;
33206;SDS011;19565;46.602;11.534;2023-07-02T12:57:12;60.00;;;57.45;;
33206;SDS011;19565;46.602;11.534;2023-07-02T12:59:41;59.28;;;56.78;;
33206;SDS011;19565;46.602;11.534;2023-07-02T13:02:09;59.75;;;57.15;;
33206;SDS011;19565;46.602;11.534;2023-07-02T13:04:38;59.15;;;56.63;;
33206;SDS011;19565;46.602;11.534;2023-07-02T13:07:08;61.95;;;59.35;;
33206;SDS011;19565;46.602;11.534;2023-07-02T13:09:36;72.28;;;69.28;;
33206;SDS011;19565;46.602;11.534;2023-07-02T13:12:04;66.47;;;63.60;;
33206;SDS011;19565;46.602;11.534;2023-07-02T13:14:33;63.30;;;60.53;;
33206;SDS011;19565;46.602;11.534;2023-07-02T13:17:01;63.35;;;60.65;;
33206;SDS011;19565;46.602;11.534;2023-07-02T13:19:31;62.60;;;59.90;;
33206;SDS011;19565;46.602;11.534;2023-07-02T13:22:00;65.97;;;63.10;;
33206;SDS011;19565;46.602;11.534;2023-07-02T13:24:33;62.85;;;60.15;;
33206;SDS011;19565;46.602;11.534;2023-07-02T13:27:02;63.80;;;61.00;;
33206;SDS011;19565;46.602;11.534;2023-07-02T13:29:34;63.00;;;60.30;;
33206;SDS011;19565;46.602;11.534;2023-07-02T13:32:02;58.42;;;55.85;;
33206;SDS011;19565;46.602;11.534;2023-07-02T13:34:30;55.80;;;53.40;;
33206;SDS011;19565;46.602;11.534;2023-07-02T13:36:58;63.20;;;60.50;;
33206;SDS011;19565;46.602;11.534;2023-07-02T13:39:29;60.85;;;58.25;;
33206;SDS011;19565;46.602;11.534;2023-07-02T13:41:58;60.20;;;57.60;;
33206;SDS011;19565;46.602;11.534;2023-07-02T13:44:26;63.75;;;60.88;;
33206;SDS011;19565;46.602;11.534;2023-07-02T13:46:55;62.45;;;59.78;;
33206;SDS011;19565;46.602;11.534;2023-07-02T13:49:23;63.45;;;60.75;;
33206;SDS011;19565;46.602;11.534;2023-07-02T13:51:51;59.05;;;56.55;;
33206;SDS011;19565;46.602;11.534;2023-07-02T13:54:19;61.40;;;58.70;;
33206;SDS011;19565;46.602;11.534;2023-07-02T13:56:47;69.20;;;66.28;;
33206;SDS011;19565;46.602;11.534;2023-07-02T13:59:18;62.40;;;59.78;;
33206;SDS011;19565;46.602;11.534;2023-07-02T14:01:46;59.72;;;57.22;;
33206;SDS011;19565;46.602;11.534;2023-07-02T14:04:15;61.08;;;58.55;;
33206;SDS011;19565;46.602;11.534;2023-07-02T14:06:44;59.30;;;56.72;;
33206;SDS011;19565;46.602;11.534;2023-07-02T14:09:13;57.90;;;55.40;;
33206;SDS011;19565;46.602;11.534;2023-07-02T14:11:41;55.75;;;53.35;;
33206;SDS011;19565;46.602;11.534;2023-07-02T14:14:10;57.92;;;55.45;;
33206;SDS011;19565;46.602;11.534;2023-07-02T14:16:40;57.03;;;54.55;;
33206;SDS011;19565;46.602;11.534;2023-07-02T14:19:08;60.10;;;57.60;;
33206;SDS011;19565;46.602;11.534;2023-07-02T14:21:36;56.78;;;54.38;;
33206;SDS011;19565;46.602;11.534;2023-07-02T14:24:04;54.67;;;52.38;;
33206;SDS011;19565;46.602;11.534;2023-07-02T14:26:32;54.90;;;52.58;;
33206;SDS011;19565;46.602;11.534;2023-07-02T14:29:00;56.08;;;53.67;;
33206;SDS011;19565;46.602;11.534;2023-07-02T14:31:29;56.65;;;54.25;;
33206;SDS011;19565;46.602;11.534;2023-07-02T14:33:58;58.00;;;55.50;;